Time;durP1;ratioP1;P1;durP2;ratioP2;P2;SDS_P1;SDS_P2;PMS_P1;PMS_P2;Temp;Humidity;BMP_temperature;BMP_pressure;BME280_temperature;BME280_humidity;BME280_pressure;Samples;Min_cycle;Max_cycle;Signal;HPM_P1;HPM_P2
2024/02/27 00:02:05;;;;;;;;;17.67;17.33;;;;;;;;5081971;27;45539;-69
2024/02/27 00:04:30;;;;;;;;;27.33;20.00;;;;;;;;5079903;28;46013;-69
2024/02/27 00:06:55;;;;;;;;;19.67;18.67;;;;;;;;5089166;27;45314;-69
2024/02/27 00:09:21;;;;;;;;;17.75;14.75;;;;;;;;5079222;27;45725;-69
2024/02/27 00:11:47;;;;;;;;;18.50;17.50;;;;;;;;5076115;27;45774;-69
2024/02/27 00:14:12;;;;;;;;;24.00;20.00;;;;;;;;5078210;27;46427;-69
2024/02/27 00:16:38;;;;;;;;;22.00;19.00;;;;;;;;5084452;27;45202;-69
2024/02/27 00:19:03;;;;;;;;;20.25;18.50;;;;;;;;5076420;27;45448;-69
2024/02/27 00:21:28;;;;;;;;;21.75;19.50;;;;;;;;5077351;27;46429;-69
2024/02/27 00:23:54;;;;;;;;;23.75;21.50;;;;;;;;5079611;28;45776;-69
2024/02/27 00:26:19;;;;;;;;;22.67;22.33;;;;;;;;5075421;28;46332;-69
2024/02/27 00:28:44;;;;;;;;;23.00;20.00;;;;;;;;5079725;28;45467;-69
2024/02/27 00:31:09;;;;;;;;;25.33;21.00;;;;;;;;5070272;27;45373;-69
2024/02/27 00:33:34;;;;;;;;;27.00;23.67;;;;;;;;5079253;27;46201;-69
2024/02/27 00:36:00;;;;;;;;;19.33;19.00;;;;;;;;5079329;27;45450;-69
2024/02/27 00:38:25;;;;;;;;;20.50;19.00;;;;;;;;5079589;28;45417;-69
2024/02/27 00:40:50;;;;;;;;;25.50;21.25;;;;;;;;5079070;28;45708;-69
2024/02/27 00:43:16;;;;;;;;;25.67;23.00;;;;;;;;5079395;28;46128;-69
2024/02/27 00:45:41;;;;;;;;;23.00;23.00;;;;;;;;5082311;27;45319;-69
2024/02/27 00:48:07;;;;;;;;;25.67;23.33;;;;;;;;5079622;27;45632;-69
2024/02/27 00:50:32;;;;;;;;;25.50;24.25;;;;;;;;5077876;27;46029;-69
2024/02/27 00:52:57;;;;;;;;;27.75;25.00;;;;;;;;5078502;27;46112;-69
2024/02/27 00:55:22;;;;;;;;;24.00;23.00;;;;;;;;5078650;27;45474;-69
2024/02/27 00:57:48;;;;;;;;;30.67;24.33;;;;;;;;5069931;27;45706;-69
2024/02/27 01:00:13;;;;;;;;;27.50;26.25;;;;;;;;5079250;28;45240;-69
2024/02/27 01:02:39;;;;;;;;;31.50;26.00;;;;;;;;5079089;27;45400;-69
2024/02/27 01:05:05;;;;;;;;;25.25;23.50;;;;;;;;5078855;27;45429;-69
2024/02/27 01:07:30;;;;;;;;;22.25;20.75;;;;;;;;5077882;28;45474;-69
2024/02/27 01:09:56;;;;;;;;;34.75;29.75;;;;;;;;5076500;27;45406;-69
2024/02/27 01:12:21;;;;;;;;;36.00;29.00;;;;;;;;5078390;27;45527;-69
2024/02/27 01:14:46;;;;;;;;;24.25;23.50;;;;;;;;5077895;27;46055;-69
2024/02/27 01:17:12;;;;;;;;;28.00;25.50;;;;;;;;5087172;27;45541;-69
2024/02/27 01:19:37;;;;;;;;;33.67;29.33;;;;;;;;5081129;27;45396;-69
2024/02/27 01:22:02;;;;;;;;;26.33;26.33;;;;;;;;5077505;27;48375;-69
2024/02/27 01:24:27;;;;;;;;;29.50;25.25;;;;;;;;5078619;27;45675;-69
2024/02/27 01:26:53;;;;;;;;;26.00;26.00;;;;;;;;5076067;27;45313;-69
2024/02/27 01:29:18;;;;;;;;;29.67;27.00;;;;;;;;5077842;27;47113;-69
2024/02/27 01:31:44;;;;;;;;;32.00;28.00;;;;;;;;5071101;27;45437;-69
2024/02/27 01:34:10;;;;;;;;;30.00;24.75;;;;;;;;5078279;28;45455;-69
2024/02/27 01:36:35;;;;;;;;;34.25;28.75;;;;;;;;5077418;28;45441;-69
2024/02/27 01:39:00;;;;;;;;;29.33;26.33;;;;;;;;5077383;28;45374;-69
2024/02/27 01:41:26;;;;;;;;;36.00;30.00;;;;;;;;5078403;27;46836;-69
2024/02/27 01:43:51;;;;;;;;;26.67;23.00;;;;;;;;5081366;27;45524;-69
2024/02/27 01:46:17;;;;;;;;;35.50;30.25;;;;;;;;5078630;27;45313;-69
2024/02/27 01:48:43;;;;;;;;;35.50;29.25;;;;;;;;5078216;27;45418;-69
2024/02/27 01:51:10;;;;;;;;;34.00;28.00;;;;;;;;5077110;28;46181;-69
2024/02/27 01:53:35;;;;;;;;;32.50;28.75;;;;;;;;5081978;27;45390;-69
2024/02/27 01:56:02;;;;;;;;;29.25;27.25;;;;;;;;5080431;27;45602;-69
2024/02/27 01:58:27;;;;;;;;;30.50;28.25;;;;;;;;5077763;27;45489;-69
2024/02/27 02:00:52;;;;;;;;;34.33;32.67;;;;;;;;5081201;27;46120;-69
2024/02/27 02:03:20;;;;;;;;;36.00;30.33;;;;;;;;5076078;27;45571;-69
2024/02/27 02:05:45;;;;;;;;;29.00;26.00;;;;;;;;5090962;27;45373;-69
2024/02/27 02:08:11;;;;;;;;;29.00;26.33;;;;;;;;5091866;27;45733;-69
2024/02/27 02:10:36;;;;;;;;;30.75;29.75;;;;;;;;5077986;27;47768;-69
2024/02/27 02:13:02;;;;;;;;;30.33;24.67;;;;;;;;5081422;27;45454;-69
2024/02/27 02:15:27;;;;;;;;;37.75;31.00;;;;;;;;5081865;27;45373;-69
2024/02/27 02:17:53;;;;;;;;;35.25;30.25;;;;;;;;5081517;27;45437;-69
2024/02/27 02:20:19;;;;;;;;;6.75;6.25;;;;;;;;5077350;27;45766;-69
2024/02/27 02:22:44;;;;;;;;;39.00;36.00;;;;;;;;5081468;27;45234;-70
2024/02/27 02:25:11;;;;;;;;;33.75;29.50;;;;;;;;5081760;27;45419;-69
2024/02/27 02:27:38;;;;;;;;;40.25;29.25;;;;;;;;5077717;27;45419;-70
2024/02/27 02:30:03;;;;;;;;;32.50;26.75;;;;;;;;5078306;27;45416;-70
2024/02/27 02:32:29;;;;;;;;;32.50;29.75;;;;;;;;5077364;27;45642;-69
2024/02/27 02:34:54;;;;;;;;;38.00;31.67;;;;;;;;5077240;27;45694;-70
2024/02/27 02:37:21;;;;;;;;;24.00;22.67;;;;;;;;5081314;27;45378;-70
2024/02/27 02:39:46;;;;;;;;;36.25;34.50;;;;;;;;5081273;27;45462;-70
2024/02/27 02:42:11;;;;;;;;;30.67;28.00;;;;;;;;5078699;27;45558;-69
2024/02/27 02:44:37;;;;;;;;;36.67;34.67;;;;;;;;5081851;27;46465;-69
2024/02/27 02:47:02;;;;;;;;;33.00;29.50;;;;;;;;5081202;27;45381;-70
2024/02/27 02:49:27;;;;;;;;;32.67;28.33;;;;;;;;5083905;27;46913;-69
2024/02/27 02:51:52;;;;;;;;;33.67;30.67;;;;;;;;5086239;27;45437;-69
2024/02/27 02:54:17;;;;;;;;;32.67;30.00;;;;;;;;5084433;27;45377;-70
2024/02/27 02:56:42;;;;;;;;;32.33;29.67;;;;;;;;5081376;27;45485;-69
2024/02/27 02:59:08;;;;;;;;;34.00;31.00;;;;;;;;5080818;27;45591;-69
2024/02/27 03:01:33;;;;;;;;;33.67;30.67;;;;;;;;5080957;28;45440;-69
2024/02/27 03:03:58;;;;;;;;;31.67;28.00;;;;;;;;5082222;27;45373;-69
2024/02/27 03:06:23;;;;;;;;;34.00;33.33;;;;;;;;5081002;27;45584;-70
2024/02/27 03:08:49;;;;;;;;;32.33;26.00;;;;;;;;5083431;27;46956;-69
2024/02/27 03:11:17;;;;;;;;;28.25;27.50;;;;;;;;5080155;27;45349;-69
2024/02/27 03:13:43;;;;;;;;;34.75;29.25;;;;;;;;5080796;27;45322;-69
2024/02/27 03:16:10;;;;;;;;;30.25;30.25;;;;;;;;5088275;27;45875;-69
2024/02/27 03:18:36;;;;;;;;;33.75;31.25;;;;;;;;5080442;27;46219;-69
2024/02/27 03:21:01;;;;;;;;;35.00;29.50;;;;;;;;5074941;27;45680;-69
2024/02/27 03:23:27;;;;;;;;;33.33;28.67;;;;;;;;5080738;27;45608;-69
2024/02/27 03:25:52;;;;;;;;;35.33;33.67;;;;;;;;5078807;27;45483;-70
2024/02/27 03:28:17;;;;;;;;;30.00;28.33;;;;;;;;5076746;28;45563;-69
2024/02/27 03:30:42;;;;;;;;;36.00;33.67;;;;;;;;5072571;27;45408;-69
2024/02/27 03:33:07;;;;;;;;;38.67;32.00;;;;;;;;5080559;27;45424;-69
2024/02/27 03:35:32;;;;;;;;;33.67;29.33;;;;;;;;5083748;27;45647;-69
2024/02/27 03:37:58;;;;;;;;;33.67;28.67;;;;;;;;5080217;27;46435;-69
2024/02/27 03:40:23;;;;;;;;;35.67;33.00;;;;;;;;5080009;27;45416;-69
2024/02/27 03:42:48;;;;;;;;;38.67;32.00;;;;;;;;5078946;27;45624;-69
2024/02/27 03:45:13;;;;;;;;;32.00;30.00;;;;;;;;5080478;27;45504;-70
2024/02/27 03:47:38;;;;;;;;;32.00;28.67;;;;;;;;5080104;27;45474;-69
2024/02/27 03:50:04;;;;;;;;;30.75;28.50;;;;;;;;5080149;27;45291;-69
2024/02/27 03:52:30;;;;;;;;;31.75;29.00;;;;;;;;5080169;28;45859;-69
2024/02/27 03:54:55;;;;;;;;;38.50;34.50;;;;;;;;5080251;27;45337;-69
2024/02/27 03:57:21;;;;;;;;;27.33;26.67;;;;;;;;5073817;27;45256;-69
2024/02/27 03:59:46;;;;;;;;;31.50;28.75;;;;;;;;5080333;27;45303;-70
2024/02/27 04:02:11;;;;;;;;;29.00;26.67;;;;;;;;5080053;27;45421;-69
2024/02/27 04:04:36;;;;;;;;;29.33;28.67;;;;;;;;5083064;27;45569;-70
2024/02/27 04:07:01;;;;;;;;;27.00;24.67;;;;;;;;5079740;27;45452;-69
2024/02/27 04:09:26;;;;;;;;;31.00;27.00;;;;;;;;5078403;28;45728;-69
2024/02/27 04:11:52;;;;;;;;;29.00;28.33;;;;;;;;5075849;27;45812;-69
2024/02/27 04:14:17;;;;;;;;;34.00;29.00;;;;;;;;5077797;28;45324;-69
2024/02/27 04:16:42;;;;;;;;;27.67;26.67;;;;;;;;5079622;27;45349;-69
2024/02/27 04:19:07;;;;;;;;;31.67;30.33;;;;;;;;5075963;28;45369;-69
2024/02/27 04:21:33;;;;;;;;;29.75;24.75;;;;;;;;5078778;27;45512;-69
2024/02/27 04:23:58;;;;;;;;;29.67;24.67;;;;;;;;5079906;28;45296;-69
2024/02/27 04:26:23;;;;;;;;;28.00;25.75;;;;;;;;5086298;27;47132;-69
2024/02/27 04:28:48;;;;;;;;;29.00;26.67;;;;;;;;5079857;28;45763;-69
2024/02/27 04:31:14;;;;;;;;;33.00;29.33;;;;;;;;5072688;27;45401;-69
2024/02/27 04:33:39;;;;;;;;;32.67;31.33;;;;;;;;5079787;27;45364;-69
2024/02/27 04:36:07;;;;;;;;;34.25;28.50;;;;;;;;5078150;27;47778;-69
2024/02/27 04:38:32;;;;;;;;;27.25;26.00;;;;;;;;5085914;27;46116;-69
2024/02/27 04:40:57;;;;;;;;;33.33;31.33;;;;;;;;5081226;27;45345;-69
2024/02/27 04:43:22;;;;;;;;;29.00;28.67;;;;;;;;5078231;27;45549;-70
2024/02/27 04:45:47;;;;;;;;;31.33;30.33;;;;;;;;5077504;27;45553;-69
2024/02/27 04:48:13;;;;;;;;;32.00;27.33;;;;;;;;5077526;27;45665;-69
2024/02/27 04:50:38;;;;;;;;;38.00;34.00;;;;;;;;5080759;27;45375;-69
2024/02/27 04:53:03;;;;;;;;;31.00;28.25;;;;;;;;5079327;28;45360;-69
2024/02/27 04:55:29;;;;;;;;;32.33;31.33;;;;;;;;5078977;27;46200;-69
2024/02/27 04:57:54;;;;;;;;;39.25;35.25;;;;;;;;5073442;28;45345;-69
2024/02/27 05:00:20;;;;;;;;;36.75;34.00;;;;;;;;5079256;27;45529;-69
2024/02/27 05:02:45;;;;;;;;;32.50;29.00;;;;;;;;5079126;27;46235;-70
2024/02/27 05:05:10;;;;;;;;;23.33;23.33;;;;;;;;5080931;27;45647;-69
2024/02/27 05:07:35;;;;;;;;;26.33;21.67;;;;;;;;5079274;27;45354;-69
2024/02/27 05:10:01;;;;;;;;;36.33;30.00;;;;;;;;5081580;27;45737;-69
2024/02/27 05:12:26;;;;;;;;;28.75;22.50;;;;;;;;5077709;27;45310;-69
2024/02/27 05:14:51;;;;;;;;;31.67;27.67;;;;;;;;5078908;28;46090;-69
2024/02/27 05:17:17;;;;;;;;;33.33;27.00;;;;;;;;5078784;27;45481;-69
2024/02/27 05:19:42;;;;;;;;;35.00;31.50;;;;;;;;5074456;27;45317;-69
2024/02/27 05:22:07;;;;;;;;;30.67;29.33;;;;;;;;5078969;27;45267;-69
2024/02/27 05:24:32;;;;;;;;;34.67;29.67;;;;;;;;5078693;28;45423;-69
2024/02/27 05:26:58;;;;;;;;;33.00;30.75;;;;;;;;5077744;27;45286;-69
2024/02/27 05:29:23;;;;;;;;;35.25;30.25;;;;;;;;5082413;27;45389;-69
2024/02/27 05:31:48;;;;;;;;;32.67;31.33;;;;;;;;5074665;27;45451;-69
2024/02/27 05:34:13;;;;;;;;;35.67;32.33;;;;;;;;5082110;27;45431;-69
2024/02/27 05:36:38;;;;;;;;;39.67;32.33;;;;;;;;5082427;27;45500;-69
2024/02/27 05:39:04;;;;;;;;;25.67;23.67;;;;;;;;5092154;27;45649;-69
2024/02/27 05:41:29;;;;;;;;;32.67;28.33;;;;;;;;5086295;27;45533;-69
2024/02/27 05:43:55;;;;;;;;;34.25;32.00;;;;;;;;5083229;27;47157;-69
2024/02/27 05:46:20;;;;;;;;;29.25;28.75;;;;;;;;5082084;27;45340;-69
2024/02/27 05:48:45;;;;;;;;;31.33;29.67;;;;;;;;5082054;27;45332;-69
2024/02/27 05:51:10;;;;;;;;;33.00;29.67;;;;;;;;5082174;27;45489;-69
2024/02/27 05:53:36;;;;;;;;;29.00;27.25;;;;;;;;5081818;27;45654;-69
2024/02/27 05:56:02;;;;;;;;;33.00;28.25;;;;;;;;5081298;27;45441;-69
2024/02/27 05:58:27;;;;;;;;;29.50;26.25;;;;;;;;5077111;27;45385;-69
2024/02/27 06:00:54;;;;;;;;;32.00;28.50;;;;;;;;5080644;27;45579;-69
2024/02/27 06:03:19;;;;;;;;;31.00;28.75;;;;;;;;5078638;27;45455;-69
2024/02/27 06:05:44;;;;;;;;;38.75;32.00;;;;;;;;5081809;27;47272;-69
2024/02/27 06:08:10;;;;;;;;;25.00;22.75;;;;;;;;5082009;27;45274;-69
2024/02/27 06:10:35;;;;;;;;;25.50;23.00;;;;;;;;5077920;27;45563;-69
2024/02/27 06:13:01;;;;;;;;;27.50;27.00;;;;;;;;5079452;27;47215;-69
2024/02/27 06:15:26;;;;;;;;;31.00;27.00;;;;;;;;5081751;27;45247;-69
2024/02/27 06:17:51;;;;;;;;;33.67;27.67;;;;;;;;5088799;27;45324;-69
2024/02/27 06:23:00;;;;;;;;;33.00;27.25;;;;;;;;5081415;27;45661;-69
2024/02/27 06:25:25;;;;;;;;;25.33;22.67;;;;;;;;5080199;27;45321;-69
2024/02/27 06:27:50;;;;;;;;;34.67;32.00;;;;;;;;5077098;27;45494;-69
2024/02/27 06:30:15;;;;;;;;;31.67;28.67;;;;;;;;5076707;27;45251;-69
2024/02/27 06:32:41;;;;;;;;;32.50;29.25;;;;;;;;5079729;27;47225;-69
2024/02/27 06:35:07;;;;;;;;;26.50;22.75;;;;;;;;5087424;27;45730;-69
2024/02/27 06:37:33;;;;;;;;;32.25;26.50;;;;;;;;5080898;27;45697;-69
2024/02/27 06:39:59;;;;;;;;;30.50;28.50;;;;;;;;5080748;27;45309;-69
2024/02/27 06:42:24;;;;;;;;;35.25;32.00;;;;;;;;5075849;27;45917;-70
2024/02/27 06:44:49;;;;;;;;;30.50;24.75;;;;;;;;5079820;27;45389;-69
2024/02/27 06:47:17;;;;;;;;;35.25;30.50;;;;;;;;5081340;27;45423;-69
2024/02/27 06:49:42;;;;;;;;;30.50;29.00;;;;;;;;5079628;27;45555;-69
2024/02/27 06:52:08;;;;;;;;;31.00;30.33;;;;;;;;5081105;27;45488;-69
2024/02/27 06:54:34;;;;;;;;;38.25;33.25;;;;;;;;5081050;27;45442;-69
2024/02/27 06:56:59;;;;;;;;;40.25;37.00;;;;;;;;5075459;27;45264;-69
2024/02/27 06:59:24;;;;;;;;;36.00;32.00;;;;;;;;5081036;27;45300;-69
2024/02/27 07:01:49;;;;;;;;;30.33;26.33;;;;;;;;5080922;28;46623;-69
2024/02/27 07:04:14;;;;;;;;;33.00;31.33;;;;;;;;5084451;27;45374;-69
2024/02/27 07:06:39;;;;;;;;;32.00;29.33;;;;;;;;5081040;27;45465;-69
2024/02/27 07:09:08;;;;;;;;;32.67;31.00;;;;;;;;5080705;28;45394;-64
2024/02/27 07:11:33;;;;;;;;;37.00;35.50;;;;;;;;5077559;27;45518;-64
2024/02/27 07:13:58;;;;;;;;;32.67;28.33;;;;;;;;5079241;27;45454;-62
2024/02/27 07:16:23;;;;;;;;;35.33;31.67;;;;;;;;5072940;27;45515;-64
2024/02/27 07:18:49;;;;;;;;;30.00;29.00;;;;;;;;5082166;27;45579;-63
2024/02/27 07:21:14;;;;;;;;;36.25;34.00;;;;;;;;5082736;27;46405;-64
2024/02/27 07:23:39;;;;;;;;;38.75;36.50;;;;;;;;5089512;27;45346;-63
2024/02/27 07:26:04;;;;;;;;;41.00;34.33;;;;;;;;5082475;27;45697;-63
2024/02/27 07:28:30;;;;;;;;;39.33;37.00;;;;;;;;5077938;27;45564;-63
2024/02/27 07:30:55;;;;;;;;;37.00;33.33;;;;;;;;5064473;28;45558;-63
2024/02/27 07:33:20;;;;;;;;;36.00;34.00;;;;;;;;5079063;27;45545;-63
2024/02/27 07:35:45;;;;;;;;;33.67;33.67;;;;;;;;5075625;27;45397;-63
2024/02/27 07:38:10;;;;;;;;;45.67;39.00;;;;;;;;5078640;27;45587;-63
2024/02/27 07:40:36;;;;;;;;;34.00;30.00;;;;;;;;5081130;27;45958;-63
2024/02/27 07:43:01;;;;;;;;;22.67;21.00;;;;;;;;5066467;27;45524;-63
2024/02/27 07:45:26;;;;;;;;;31.25;28.75;;;;;;;;5084042;27;45382;-63
2024/02/27 07:47:51;;;;;;;;;32.67;29.33;;;;;;;;5074074;27;45452;-63
2024/02/27 07:50:17;;;;;;;;;40.33;36.67;;;;;;;;5072416;27;46737;-69
2024/02/27 07:52:42;;;;;;;;;35.25;32.50;;;;;;;;5076657;27;45558;-69
2024/02/27 07:55:07;;;;;;;;;39.00;33.33;;;;;;;;5080719;27;45860;-69
2024/02/27 07:57:33;;;;;;;;;45.00;39.75;;;;;;;;5080903;27;45464;-69
2024/02/27 07:59:58;;;;;;;;;36.00;31.00;;;;;;;;5089845;27;45472;-68
2024/02/27 08:02:25;;;;;;;;;47.33;37.67;;;;;;;;5068124;27;45345;-68
2024/02/27 08:04:50;;;;;;;;;42.25;37.00;;;;;;;;5083577;27;45475;-69
2024/02/27 08:07:16;;;;;;;;;40.67;38.33;;;;;;;;5071057;27;45374;-69
2024/02/27 08:09:41;;;;;;;;;36.00;35.00;;;;;;;;5077813;27;45560;-68
2024/02/27 08:12:06;;;;;;;;;40.67;36.67;;;;;;;;5077129;27;45500;-68
2024/02/27 08:14:32;;;;;;;;;39.25;36.75;;;;;;;;5066742;27;45426;-68
2024/02/27 08:17:01;;;;;;;;;43.75;33.00;;;;;;;;5078269;27;45520;-69
2024/02/27 08:19:26;;;;;;;;;40.75;33.75;;;;;;;;5071493;27;45553;-68
2024/02/27 08:21:51;;;;;;;;;44.00;40.33;;;;;;;;5066796;27;45418;-68
2024/02/27 08:24:17;;;;;;;;;38.67;36.67;;;;;;;;5079508;27;45646;-69
2024/02/27 08:26:44;;;;;;;;;45.00;36.00;;;;;;;;5073190;27;45722;-68
2024/02/27 08:29:10;;;;;;;;;29.25;27.75;;;;;;;;5077352;27;46508;-68
2024/02/27 08:31:35;;;;;;;;;44.67;37.00;;;;;;;;5074502;28;45455;-69
2024/02/27 08:34:04;;;;;;;;;38.00;35.67;;;;;;;;5074915;27;45765;-68
2024/02/27 08:36:29;;;;;;;;;32.00;30.50;;;;;;;;5068974;27;45532;-68
2024/02/27 08:38:54;;;;;;;;;37.67;33.33;;;;;;;;5074466;27;47232;-68
2024/02/27 08:41:21;;;;;;;;;41.00;36.67;;;;;;;;5075224;27;45485;-68
2024/02/27 08:43:46;;;;;;;;;44.00;34.50;;;;;;;;5078937;27;45462;-68
2024/02/27 08:46:18;;;;;;;;;45.75;35.75;;;;;;;;5072568;27;45793;-68
2024/02/27 08:48:44;;;;;;;;;37.50;35.50;;;;;;;;5086546;27;46382;-68
2024/02/27 08:51:09;;;;;;;;;43.00;38.00;;;;;;;;5069213;27;45976;-68
2024/02/27 08:53:34;;;;;;;;;41.33;32.33;;;;;;;;5085878;27;45652;-68
2024/02/27 08:55:59;;;;;;;;;39.67;34.00;;;;;;;;5075918;27;46199;-68
2024/02/27 08:58:24;;;;;;;;;37.33;34.67;;;;;;;;5065395;28;46212;-68
2024/02/27 09:00:49;;;;;;;;;37.33;32.00;;;;;;;;5075700;27;45442;-68
2024/02/27 09:03:15;;;;;;;;;37.33;36.00;;;;;;;;5073339;27;45991;-68
2024/02/27 09:05:43;;;;;;;;;39.67;34.33;;;;;;;;5091162;27;45494;-68
2024/02/27 09:08:08;;;;;;;;;38.00;29.25;;;;;;;;5077235;27;46206;-68
2024/02/27 09:10:33;;;;;;;;;32.67;31.00;;;;;;;;5074705;27;45540;-68
2024/02/27 09:12:58;;;;;;;;;43.33;36.67;;;;;;;;5065505;28;45516;-68
2024/02/27 09:15:23;;;;;;;;;38.00;34.67;;;;;;;;5069809;27;45557;-68
2024/02/27 09:17:49;;;;;;;;;36.33;32.33;;;;;;;;5072646;27;46333;-68
2024/02/27 09:20:14;;;;;;;;;42.33;36.00;;;;;;;;5069208;27;45542;-68
2024/02/27 09:22:39;;;;;;;;;36.50;34.25;;;;;;;;5066928;27;46558;-68
2024/02/27 09:25:05;;;;;;;;;46.75;37.75;;;;;;;;5074157;28;45608;-68
2024/02/27 09:27:31;;;;;;;;;45.50;37.50;;;;;;;;5075396;27;45428;-69
2024/02/27 09:29:56;;;;;;;;;42.50;36.25;;;;;;;;5060439;27;45264;-68
2024/02/27 09:32:22;;;;;;;;;37.33;32.00;;;;;;;;5071621;27;45580;-68
2024/02/27 09:34:47;;;;;;;;;39.75;36.75;;;;;;;;5073861;27;45699;-68
2024/02/27 09:37:12;;;;;;;;;38.25;35.00;;;;;;;;5077837;27;45384;-68
2024/02/27 09:39:38;;;;;;;;;38.25;35.75;;;;;;;;5076901;27;45602;-68
2024/02/27 09:42:10;;;;;;;;;42.25;36.00;;;;;;;;5078403;27;45312;-68
2024/02/27 09:44:38;;;;;;;;;41.50;38.50;;;;;;;;5080263;27;45538;-68
2024/02/27 09:47:05;;;;;;;;;37.75;32.00;;;;;;;;5078027;27;46141;-68
2024/02/27 09:49:31;;;;;;;;;47.50;39.00;;;;;;;;5081359;27;45584;-68
2024/02/27 09:51:57;;;;;;;;;38.33;29.67;;;;;;;;5092358;27;45392;-68
2024/02/27 09:54:23;;;;;;;;;39.75;33.75;;;;;;;;5090119;27;45386;-68
2024/02/27 09:56:49;;;;;;;;;42.25;36.25;;;;;;;;5075381;28;45393;-69
2024/02/27 09:59:14;;;;;;;;;36.00;32.50;;;;;;;;5077090;27;45298;-69
2024/02/27 10:01:41;;;;;;;;;35.00;33.33;;;;;;;;5077044;27;45820;-70
2024/02/27 10:04:06;;;;;;;;;35.50;33.75;;;;;;;;5079521;27;45260;-69
2024/02/27 10:06:32;;;;;;;;;34.50;30.00;;;;;;;;5086065;27;45659;-69
2024/02/27 10:08:59;;;;;;;;;41.50;33.50;;;;;;;;5076538;27;45360;-68
2024/02/27 10:11:24;;;;;;;;;34.25;32.75;;;;;;;;5076023;27;45644;-68
2024/02/27 10:13:49;;;;;;;;;32.00;31.00;;;;;;;;5070990;27;45315;-68
2024/02/27 10:16:19;;;;;;;;;42.00;37.00;;;;;;;;5077368;27;46973;-68
2024/02/27 10:18:44;;;;;;;;;40.00;36.00;;;;;;;;5075810;27;45385;-68
2024/02/27 10:21:09;;;;;;;;;42.67;37.00;;;;;;;;5083136;27;45415;-67
2024/02/27 10:23:34;;;;;;;;;30.33;30.00;;;;;;;;5082592;27;45753;-67
2024/02/27 10:26:07;;;;;;;;;34.25;31.75;;;;;;;;5079951;28;47159;-69
2024/02/27 10:28:33;;;;;;;;;34.25;28.75;;;;;;;;5076731;27;45698;-68
2024/02/27 10:30:58;;;;;;;;;30.75;30.75;;;;;;;;5070918;27;45487;-68
2024/02/27 10:33:24;;;;;;;;;34.33;31.00;;;;;;;;5080622;27;45476;-68
2024/02/27 10:35:52;;;;;;;;;32.25;29.25;;;;;;;;5079417;27;46067;-68
2024/02/27 10:38:21;;;;;;;;;37.00;34.75;;;;;;;;5075869;27;45747;-68
2024/02/27 10:40:47;;;;;;;;;37.50;32.50;;;;;;;;5080909;27;45423;-68
2024/02/27 10:43:12;;;;;;;;;28.50;27.25;;;;;;;;5078714;27;47133;-68
2024/02/27 10:45:38;;;;;;;;;32.00;30.33;;;;;;;;5073251;27;46145;-68
2024/02/27 10:48:04;;;;;;;;;33.75;29.25;;;;;;;;5076670;27;45378;-68
2024/02/27 10:50:30;;;;;;;;;36.00;32.00;;;;;;;;5072959;27;45605;-68
2024/02/27 10:52:57;;;;;;;;;39.75;35.50;;;;;;;;5081944;27;45450;-68
2024/02/27 10:55:23;;;;;;;;;34.75;31.00;;;;;;;;5079982;27;45527;-68
2024/02/27 10:57:48;;;;;;;;;31.25;29.00;;;;;;;;5079066;27;45575;-68
2024/02/27 11:00:15;;;;;;;;;34.25;29.00;;;;;;;;5078223;27;45607;-68
2024/02/27 11:02:42;;;;;;;;;34.75;28.50;;;;;;;;5076081;27;45490;-68
2024/02/27 11:05:08;;;;;;;;;23.75;22.75;;;;;;;;5079408;27;45694;-71
2024/02/27 11:07:34;;;;;;;;;28.00;25.50;;;;;;;;5078904;27;45675;-69
2024/02/27 11:09:59;;;;;;;;;33.50;29.75;;;;;;;;5073292;27;45559;-68
2024/02/27 11:12:28;;;;;;;;;26.25;22.50;;;;;;;;5076077;27;45522;-68
2024/02/27 11:15:01;;;;;;;;;26.25;24.25;;;;;;;;5079661;27;46493;-68
2024/02/27 11:17:28;;;;;;;;;32.50;31.50;;;;;;;;5078327;27;45600;-69
2024/02/27 11:19:54;;;;;;;;;30.50;28.75;;;;;;;;5069494;27;45419;-69
2024/02/27 11:22:21;;;;;;;;;29.00;27.50;;;;;;;;5060380;28;45836;-69
2024/02/27 11:24:47;;;;;;;;;26.25;24.75;;;;;;;;5069483;27;45559;-68
2024/02/27 11:27:16;;;;;;;;;28.50;27.25;;;;;;;;5078665;27;45515;-68
2024/02/27 11:29:42;;;;;;;;;29.75;26.75;;;;;;;;5087122;27;45547;-69
2024/02/27 11:32:08;;;;;;;;;31.75;28.50;;;;;;;;5077197;27;46210;-69
2024/02/27 11:34:36;;;;;;;;;21.75;18.00;;;;;;;;5078346;27;45368;-68
2024/02/27 11:37:14;;;;;;;;;31.00;29.50;;;;;;;;5070322;27;45727;-68
2024/02/27 11:39:40;;;;;;;;;23.75;23.00;;;;;;;;5078858;27;45561;-69
2024/02/27 11:42:07;;;;;;;;;25.50;20.25;;;;;;;;5078567;28;45832;-68
2024/02/27 11:44:32;;;;;;;;;28.50;26.00;;;;;;;;5078652;27;45500;-69
2024/02/27 11:46:57;;;;;;;;;30.67;28.67;;;;;;;;5076872;28;45384;-69
2024/02/27 11:49:41;;;;;;;;;30.00;25.67;;;;;;;;5079069;27;45479;-68
2024/02/27 11:52:07;;;;;;;;;30.75;28.25;;;;;;;;5080460;27;45369;-68
2024/02/27 11:54:33;;;;;;;;;34.50;27.50;;;;;;;;5079567;27;45403;-68
2024/02/27 11:56:59;;;;;;;;;33.00;30.50;;;;;;;;5067316;27;45823;-69
2024/02/27 11:59:28;;;;;;;;;25.50;24.75;;;;;;;;5078493;27;45422;-68
2024/02/27 12:02:00;;;;;;;;;31.50;29.75;;;;;;;;5070115;27;45472;-68
2024/02/27 12:04:26;;;;;;;;;28.25;24.50;;;;;;;;5080492;27;46460;-69
2024/02/27 12:06:51;;;;;;;;;37.00;32.50;;;;;;;;5078493;27;45524;-69
2024/02/27 12:09:21;;;;;;;;;35.00;31.00;;;;;;;;5078429;27;45441;-68
2024/02/27 12:11:46;;;;;;;;;31.50;27.75;;;;;;;;5077193;28;45247;-68
2024/02/27 12:14:12;;;;;;;;;29.50;27.00;;;;;;;;5077975;27;45672;-68
2024/02/27 12:16:41;;;;;;;;;29.75;25.00;;;;;;;;5081344;27;45666;-69
2024/02/27 12:19:06;;;;;;;;;37.00;31.00;;;;;;;;5067382;27;45978;-68
2024/02/27 12:21:33;;;;;;;;;29.67;28.33;;;;;;;;5077984;27;45448;-68
2024/02/27 12:24:07;;;;;;;;;30.50;26.75;;;;;;;;5070460;27;47320;-68
2024/02/27 12:26:32;;;;;;;;;29.25;29.25;;;;;;;;5064035;27;45553;-68
2024/02/27 12:28:58;;;;;;;;;30.67;29.33;;;;;;;;5078901;27;45580;-68
2024/02/27 12:31:23;;;;;;;;;30.25;26.75;;;;;;;;5071912;27;45718;-68
2024/02/27 12:33:49;;;;;;;;;27.67;24.67;;;;;;;;5077844;27;46057;-68
2024/02/27 12:36:14;;;;;;;;;31.25;29.75;;;;;;;;5075915;27;46027;-68
2024/02/27 12:38:48;;;;;;;;;31.00;29.33;;;;;;;;5077197;28;45489;-69
2024/02/27 12:41:13;;;;;;;;;36.75;31.75;;;;;;;;5077567;27;45519;-69
2024/02/27 12:43:38;;;;;;;;;29.67;25.67;;;;;;;;5076711;28;47145;-68
2024/02/27 12:46:03;;;;;;;;;34.00;31.00;;;;;;;;5076286;27;45562;-68
2024/02/27 12:48:29;;;;;;;;;28.67;21.67;;;;;;;;5077365;28;45361;-68
2024/02/27 12:50:54;;;;;;;;;29.33;25.33;;;;;;;;5080043;27;45524;-68
2024/02/27 12:53:19;;;;;;;;;34.33;32.00;;;;;;;;5070295;27;45572;-68
2024/02/27 12:55:45;;;;;;;;;39.00;35.00;;;;;;;;5072507;27;45417;-68
2024/02/27 12:58:10;;;;;;;;;34.25;31.50;;;;;;;;5091915;27;45517;-68
2024/02/27 13:00:36;;;;;;;;;35.00;32.00;;;;;;;;5084991;27;45647;-68
2024/02/27 13:03:02;;;;;;;;;35.00;31.50;;;;;;;;5076828;27;46159;-68
2024/02/27 13:05:27;;;;;;;;;32.50;30.00;;;;;;;;5073126;28;45916;-68
2024/02/27 13:07:53;;;;;;;;;35.33;33.67;;;;;;;;5067260;27;45496;-68
2024/02/27 13:10:19;;;;;;;;;33.00;32.75;;;;;;;;5082341;27;45309;-68
2024/02/27 13:12:45;;;;;;;;;32.25;30.25;;;;;;;;5079674;27;47144;-69
2024/02/27 13:15:10;;;;;;;;;37.50;33.25;;;;;;;;5077642;27;45639;-66
2024/02/27 13:17:35;;;;;;;;;27.33;26.00;;;;;;;;5066389;27;45777;-68
2024/02/27 13:20:00;;;;;;;;;34.33;33.67;;;;;;;;5068340;27;45645;-69
2024/02/27 13:22:26;;;;;;;;;40.00;37.33;;;;;;;;5073005;27;47235;-68
2024/02/27 13:24:51;;;;;;;;;31.00;29.67;;;;;;;;5077856;27;45446;-68
2024/02/27 13:27:16;;;;;;;;;31.67;28.00;;;;;;;;5072194;27;45670;-68
2024/02/27 13:29:42;;;;;;;;;27.33;27.33;;;;;;;;5077516;27;45705;-68
2024/02/27 13:32:07;;;;;;;;;33.50;29.75;;;;;;;;5076641;27;45483;-69
2024/02/27 13:34:33;;;;;;;;;33.25;31.00;;;;;;;;5071252;27;45485;-68
2024/02/27 13:36:58;;;;;;;;;36.67;34.33;;;;;;;;5083187;27;45362;-68
2024/02/27 13:39:23;;;;;;;;;29.00;26.00;;;;;;;;5077454;27;45504;-68
2024/02/27 13:41:49;;;;;;;;;32.00;31.67;;;;;;;;5090450;27;46194;-68
2024/02/27 13:44:16;;;;;;;;;29.50;26.50;;;;;;;;5076483;27;45419;-68
2024/02/27 13:46:41;;;;;;;;;32.50;32.00;;;;;;;;5082102;27;45393;-68
2024/02/27 13:49:07;;;;;;;;;35.00;33.75;;;;;;;;5078593;27;45441;-68
2024/02/27 13:51:32;;;;;;;;;34.33;31.67;;;;;;;;5073686;27;45661;-68
2024/02/27 13:53:58;;;;;;;;;33.25;27.25;;;;;;;;5078251;27;45614;-68
2024/02/27 13:56:23;;;;;;;;;30.75;30.50;;;;;;;;5095979;27;45459;-68
2024/02/27 13:58:48;;;;;;;;;35.00;33.00;;;;;;;;5077665;27;45387;-68
2024/02/27 14:01:13;;;;;;;;;32.00;28.00;;;;;;;;5076847;27;45492;-68
2024/02/27 14:03:39;;;;;;;;;33.00;29.67;;;;;;;;5080483;27;45628;-68
2024/02/27 14:06:05;;;;;;;;;36.25;32.75;;;;;;;;5088686;27;45400;-68
2024/02/27 14:08:30;;;;;;;;;32.50;28.00;;;;;;;;5075395;27;45477;-68
2024/02/27 14:10:56;;;;;;;;;31.50;26.75;;;;;;;;5081501;27;46030;-68